KBPG/BPG METAR and TAF weather

Enter ICAO airport designator
Station Type Date Time Source
KBPG METAR 2018/09/21 23:30 UTC NOAA

KBPG 212330Z AUTO 01015G28KT 5SM SCT008 OVC013 19/17 A3009 RMK AO2 T01850172


Station Type Date Time Source
KBPG Decoded METAR 2018/09/21 23:30 UTC NOAA

Big Spring, Big Spring McMahon-Wrinkle Airport, TX, United States (KBPG) 32-12N 101-31W
Sep 21, 2018 - 07:30 PM EDT / 2018.09.21 2330 UTC
Wind: from the N (010 degrees) at 17 MPH (15 KT) gusting to 32 MPH (28 KT):0
Visibility: 5 mile(s):0
Sky conditions: overcast
Temperature: 65.3 F (18.5 C)
Dew Point: 63.0 F (17.2 C)
Relative Humidity: 92%
Pressure (altimeter): 30.09 in. Hg (1018 hPa)
ob: KBPG 212330Z AUTO 01015G28KT 5SM SCT008 OVC013 19/17 A3009 RMK AO2 T01850172
cycle: 23

Station Type Date Time Source
KBPG TAF UTC NOAA

Error!


Example: see airport list